Time;durP1;ratioP1;P1;durP2;ratioP2;P2;SDS_P1;SDS_P2;PMS_P1;PMS_P2;Temp;Humidity;BMP_temperature;BMP_pressure;BME280_temperature;BME280_humidity;BME280_pressure;Samples;Min_cycle;Max_cycle;Signal;HPM_P1;HPM_P2
2022/02/27 00:03:32;;;;;;;13.55;4.57;;;4.30;99.90;;;;;;5023544;28;20096;-33
2022/02/27 00:05:58;;;;;;;20.23;6.65;;;4.30;99.90;;;;;;5032343;28;20037;-38
2022/02/27 00:08:23;;;;;;;21.80;6.25;;;4.30;99.90;;;;;;5022942;28;20500;-41
2022/02/27 00:10:49;;;;;;;14.60;5.93;;;4.30;99.90;;;;;;5007369;28;20030;-34
2022/02/27 00:13:14;;;;;;;22.42;5.80;;;4.30;99.90;;;;;;5020436;28;20056;-32
2022/02/27 00:15:40;;;;;;;16.98;5.70;;;4.30;99.90;;;;;;5024760;28;20056;-35
2022/02/27 00:18:06;;;;;;;19.05;5.90;;;4.30;99.90;;;;;;5029562;28;20470;-42
2022/02/27 00:20:32;;;;;;;27.85;4.90;;;4.30;99.90;;;;;;5034042;28;20037;-33
2022/02/27 00:22:58;;;;;;;24.30;6.38;;;4.30;99.90;;;;;;5030925;28;20045;-33
2022/02/27 00:25:24;;;;;;;29.05;6.72;;;4.30;99.90;;;;;;5033085;28;20061;-38
2022/02/27 00:27:49;;;;;;;24.50;6.32;;;4.30;99.90;;;;;;5030681;28;20029;-36
2022/02/27 00:30:15;;;;;;;20.33;6.10;;;4.30;99.90;;;;;;5032822;28;20670;-31
2022/02/27 00:32:40;;;;;;;25.35;5.25;;;4.30;99.90;;;;;;5024771;28;20121;-36
2022/02/27 00:35:07;;;;;;;24.15;4.72;;;4.30;99.90;;;;;;5022899;28;20018;-33
2022/02/27 00:37:33;;;;;;;25.30;5.47;;;4.30;99.90;;;;;;5032904;28;20444;-36
2022/02/27 00:39:59;;;;;;;20.92;5.85;;;4.30;99.90;;;;;;5026090;28;20127;-35
2022/02/27 00:42:25;;;;;;;18.55;5.22;;;4.30;99.90;;;;;;5022354;28;20037;-40
2022/02/27 00:44:51;;;;;;;22.67;5.85;;;4.30;99.90;;;;;;5027670;28;20021;-31
2022/02/27 00:47:16;;;;;;;20.15;5.90;;;4.20;99.90;;;;;;5025102;28;20033;-35
2022/02/27 00:49:42;;;;;;;25.80;6.20;;;4.20;99.90;;;;;;5024829;28;20625;-39
2022/02/27 00:52:07;;;;;;;18.10;5.57;;;4.20;99.90;;;;;;5028928;28;20021;-30
2022/02/27 00:54:33;;;;;;;23.52;5.03;;;4.20;99.90;;;;;;5024834;28;20029;-31
2022/02/27 00:56:59;;;;;;;18.38;5.70;;;4.20;99.90;;;;;;5023259;28;20033;-39
2022/02/27 00:59:24;;;;;;;18.17;5.95;;;4.20;99.90;;;;;;5002131;28;20135;-31
2022/02/27 01:01:50;;;;;;;23.30;5.53;;;4.10;99.90;;;;;;5003969;28;20034;-33
2022/02/27 01:04:16;;;;;;;15.23;6.05;;;4.10;99.90;;;;;;5005056;28;20091;-31
2022/02/27 01:06:41;;;;;;;24.80;6.15;;;4.00;99.90;;;;;;5004753;28;20108;-34
2022/02/27 01:09:07;;;;;;;21.50;5.95;;;4.00;99.90;;;;;;5004757;28;20105;-38
2022/02/27 01:11:34;;;;;;;27.73;6.30;;;4.10;99.90;;;;;;5004715;28;20073;-35
2022/02/27 01:14:01;;;;;;;19.85;5.47;;;4.10;99.90;;;;;;5010540;28;20471;-38
2022/02/27 01:16:27;;;;;;;16.63;5.32;;;4.10;99.90;;;;;;5007185;28;20092;-32
2022/02/27 01:18:53;;;;;;;14.48;5.35;;;4.10;99.90;;;;;;5008266;28;20422;-57
2022/02/27 01:21:20;;;;;;;17.10;5.15;;;4.00;99.90;;;;;;5009233;28;20112;-35
2022/02/27 01:23:47;;;;;;;16.13;4.97;;;4.00;99.90;;;;;;5012738;28;20785;-33
2022/02/27 01:26:13;;;;;;;17.80;4.75;;;4.00;99.90;;;;;;5011258;28;20080;-32
2022/02/27 01:28:40;;;;;;;17.20;5.63;;;3.90;99.90;;;;;;5015126;28;20038;-34
2022/02/27 01:31:09;;;;;;;22.83;4.63;;;3.90;99.90;;;;;;5010712;28;20026;-30
2022/02/27 01:33:35;;;;;;;22.83;5.43;;;3.90;99.90;;;;;;5001421;28;20033;-30
2022/02/27 01:36:00;;;;;;;14.90;4.68;;;3.90;99.90;;;;;;5011547;28;20463;-31
2022/02/27 01:38:26;;;;;;;18.80;6.07;;;3.80;99.90;;;;;;5016528;28;20025;-39
2022/02/27 01:40:52;;;;;;;15.80;5.72;;;3.80;99.90;;;;;;5024106;28;20026;-32
2022/02/27 01:43:18;;;;;;;23.80;5.57;;;3.80;99.90;;;;;;5016430;28;20025;-36
2022/02/27 01:45:43;;;;;;;25.33;5.15;;;3.80;99.90;;;;;;5006787;28;20084;-30
2022/02/27 01:48:09;;;;;;;7.68;4.25;;;3.80;99.90;;;;;;5008386;28;20030;-31
2022/02/27 01:50:35;;;;;;;21.65;5.28;;;3.80;99.90;;;;;;5013755;28;20034;-31
2022/02/27 01:53:00;;;;;;;21.85;5.55;;;3.80;99.90;;;;;;5011878;28;20116;-34
2022/02/27 01:55:26;;;;;;;12.27;4.15;;;3.80;99.90;;;;;;5003592;28;20030;-33
2022/02/27 01:57:52;;;;;;;16.30;4.78;;;3.80;99.90;;;;;;4996915;28;20482;-34
2022/02/27 02:00:18;;;;;;;13.18;5.70;;;3.80;99.90;;;;;;5035041;28;20022;-33
2022/02/27 02:02:45;;;;;;;20.05;4.78;;;3.90;99.90;;;;;;5030352;28;20373;-31
2022/02/27 02:05:11;;;;;;;10.40;3.70;;;3.80;99.90;;;;;;5018530;28;20052;-32
2022/02/27 02:07:36;;;;;;;18.25;4.82;;;3.80;99.90;;;;;;5034279;28;20014;-38
2022/02/27 02:10:03;;;;;;;13.82;4.10;;;3.80;99.90;;;;;;5031269;28;20037;-33
2022/02/27 02:12:29;;;;;;;16.55;4.07;;;3.80;99.90;;;;;;5033300;28;20578;-30
2022/02/27 02:14:55;;;;;;;10.57;4.50;;;3.80;99.90;;;;;;5049061;28;20120;-32
2022/02/27 02:17:21;;;;;;;9.57;3.72;;;3.80;99.90;;;;;;5053732;28;20025;-53
2022/02/27 02:19:50;;;;;;;17.65;4.20;;;3.80;99.90;;;;;;5042772;28;20171;-32
2022/02/27 02:22:16;;;;;;;13.15;4.20;;;3.80;99.90;;;;;;5040444;28;20032;-34
2022/02/27 02:24:41;;;;;;;18.80;5.00;;;3.80;99.90;;;;;;5037129;28;20029;-32
2022/02/27 02:27:07;;;;;;;11.98;4.15;;;3.80;99.90;;;;;;5042681;28;20025;-35
2022/02/27 02:29:33;;;;;;;31.58;6.22;;;3.80;99.90;;;;;;5044699;28;20074;-35
2022/02/27 02:31:58;;;;;;;18.42;4.85;;;3.70;99.90;;;;;;5051206;28;20021;-32
2022/02/27 02:34:25;;;;;;;9.52;3.65;;;3.70;99.90;;;;;;5034075;28;20052;-38
2022/02/27 02:36:52;;;;;;;18.40;4.63;;;3.70;99.90;;;;;;5050716;28;20029;-31
2022/02/27 02:39:20;;;;;;;14.45;3.90;;;3.70;99.90;;;;;;5038149;28;20028;-41
2022/02/27 02:41:46;;;;;;;12.20;4.43;;;3.70;99.90;;;;;;5052220;28;20022;-36
2022/02/27 02:44:12;;;;;;;27.42;6.82;;;3.70;99.90;;;;;;5041055;28;20324;-33
2022/02/27 02:46:38;;;;;;;17.52;5.32;;;3.60;99.90;;;;;;5047130;28;20038;-32
2022/02/27 02:49:05;;;;;;;28.77;3.95;;;3.70;99.90;;;;;;5040274;28;20036;-32
2022/02/27 02:51:31;;;;;;;20.80;5.27;;;3.70;99.90;;;;;;5053302;28;20489;-33
2022/02/27 02:53:57;;;;;;;7.00;3.58;;;3.60;99.90;;;;;;5029869;28;20064;-33
2022/02/27 02:56:23;;;;;;;13.68;3.67;;;3.70;99.90;;;;;;5034216;28;20478;-35
2022/02/27 02:58:49;;;;;;;12.13;3.30;;;3.70;99.90;;;;;;5041865;28;20060;-35
2022/02/27 03:01:16;;;;;;;10.82;2.95;;;3.70;99.90;;;;;;5051646;28;20021;-33
2022/02/27 03:03:44;;;;;;;10.00;3.97;;;3.60;99.90;;;;;;5047628;28;20111;-35
2022/02/27 03:06:11;;;;;;;12.55;3.75;;;3.60;99.90;;;;;;5043973;28;20037;-41
2022/02/27 03:08:43;;;;;;;14.02;3.58;;;3.60;99.90;;;;;;5051234;28;20025;-37
2022/02/27 03:11:10;;;;;;;13.02;3.83;;;3.60;99.90;;;;;;5035466;28;20022;-37
2022/02/27 03:13:36;;;;;;;11.48;3.53;;;3.60;99.90;;;;;;5038889;28;20036;-31
2022/02/27 03:16:02;;;;;;;15.32;4.40;;;3.60;99.90;;;;;;5032465;28;20044;-34
2022/02/27 03:18:28;;;;;;;12.20;3.40;;;3.60;99.90;;;;;;5038332;28;20531;-37
2022/02/27 03:20:54;;;;;;;11.45;3.92;;;3.60;99.90;;;;;;5039156;28;20025;-44
2022/02/27 03:23:19;;;;;;;14.65;3.30;;;3.60;99.90;;;;;;5038165;28;20549;-32
2022/02/27 03:25:45;;;;;;;13.90;4.03;;;3.60;99.90;;;;;;5033053;28;20555;-37
2022/02/27 03:28:11;;;;;;;11.05;3.35;;;3.50;99.90;;;;;;5040367;28;20048;-34
2022/02/27 03:30:38;;;;;;;14.43;2.92;;;3.60;99.90;;;;;;5040491;28;20070;-36
2022/02/27 03:33:07;;;;;;;9.30;3.38;;;3.60;99.90;;;;;;5033383;28;20035;-29
2022/02/27 03:35:33;;;;;;;12.70;3.42;;;3.60;99.90;;;;;;5024213;28;20390;-32
2022/02/27 03:37:58;;;;;;;11.93;3.38;;;3.60;99.90;;;;;;5051363;28;20026;-33
2022/02/27 03:40:24;;;;;;;8.88;3.10;;;3.70;99.90;;;;;;5048820;28;20080;-30
2022/02/27 03:42:50;;;;;;;16.63;3.90;;;3.60;99.90;;;;;;5032117;28;20056;-30
2022/02/27 03:45:16;;;;;;;8.43;2.70;;;3.50;99.90;;;;;;5024957;28;20393;-33
2022/02/27 03:47:45;;;;;;;12.02;3.75;;;3.60;99.90;;;;;;5014692;28;20026;-35
2022/02/27 03:50:12;;;;;;;9.30;2.90;;;3.60;99.90;;;;;;5026913;28;20072;-36
2022/02/27 03:52:39;;;;;;;12.70;2.92;;;3.50;99.90;;;;;;5034333;28;20033;-31
2022/02/27 03:55:06;;;;;;;11.50;2.88;;;3.60;99.90;;;;;;5032762;28;20132;-30
2022/02/27 03:57:32;;;;;;;13.75;3.40;;;3.50;99.90;;;;;;5020710;28;20033;-34
2022/02/27 03:59:57;;;;;;;17.00;4.10;;;3.60;99.90;;;;;;5013581;28;20046;-35
2022/02/27 04:02:23;;;;;;;14.90;3.65;;;3.60;99.90;;;;;;5018778;28;21569;-36
2022/02/27 04:04:49;;;;;;;15.75;2.75;;;3.60;99.90;;;;;;5036468;28;20029;-31
2022/02/27 04:07:15;;;;;;;5.00;2.30;;;3.50;99.90;;;;;;5031370;28;20032;-35
2022/02/27 04:09:41;;;;;;;14.48;3.15;;;3.50;99.90;;;;;;5033926;28;20021;-33
2022/02/27 04:12:08;;;;;;;17.13;3.33;;;3.50;99.90;;;;;;5020169;28;20033;-33
2022/02/27 04:14:33;;;;;;;24.42;4.00;;;3.40;99.90;;;;;;5028929;28;20167;-35
2022/02/27 04:16:59;;;;;;;11.82;3.58;;;3.30;99.90;;;;;;5023676;28;20112;-29
2022/02/27 04:19:24;;;;;;;18.20;3.45;;;3.40;99.90;;;;;;5013435;28;20478;-37
2022/02/27 04:21:50;;;;;;;14.13;3.95;;;3.30;99.90;;;;;;5017180;28;20057;-34
2022/02/27 04:24:16;;;;;;;13.82;3.72;;;3.10;99.90;;;;;;5027548;28;20025;-34
2022/02/27 04:26:42;;;;;;;10.05;3.40;;;3.10;99.90;;;;;;5014008;28;20068;-35
2022/02/27 04:29:08;;;;;;;11.43;3.97;;;3.00;99.90;;;;;;5013453;28;20470;-33
2022/02/27 04:31:34;;;;;;;9.18;3.30;;;2.90;99.90;;;;;;5014198;28;20040;-30
2022/02/27 04:33:59;;;;;;;9.55;3.80;;;2.80;99.90;;;;;;5021595;28;20108;-32
2022/02/27 04:36:25;;;;;;;8.18;3.13;;;2.70;99.90;;;;;;5028271;28;20029;-37
2022/02/27 04:38:54;;;;;;;8.85;4.45;;;2.60;99.90;;;;;;5032692;28;20032;-30
2022/02/27 04:41:20;;;;;;;11.32;3.67;;;2.60;99.90;;;;;;5030745;28;20257;-34
2022/02/27 04:43:47;;;;;;;18.52;4.55;;;2.50;99.90;;;;;;5028970;28;20087;-33
2022/02/27 04:46:12;;;;;;;10.40;3.97;;;2.50;99.90;;;;;;5017523;28;20025;-34
2022/02/27 04:48:38;;;;;;;11.45;4.22;;;2.50;99.90;;;;;;5011892;28;20144;-40
2022/02/27 04:51:04;;;;;;;14.65;4.55;;;2.50;99.90;;;;;;5033317;28;20112;-31
2022/02/27 04:53:30;;;;;;;12.45;3.63;;;2.50;99.90;;;;;;5032370;28;20112;-33
2022/02/27 04:55:56;;;;;;;21.30;5.35;;;2.40;99.90;;;;;;5032129;28;20029;-31
2022/02/27 04:58:21;;;;;;;10.60;4.22;;;2.40;99.90;;;;;;5032466;28;20096;-32
2022/02/27 05:00:47;;;;;;;9.20;3.90;;;2.30;99.90;;;;;;5032136;28;20448;-33
2022/02/27 05:03:12;;;;;;;17.75;3.83;;;2.30;99.90;;;;;;5032632;28;20524;-38
2022/02/27 05:05:38;;;;;;;12.95;4.05;;;2.30;99.90;;;;;;5030438;28;20029;-33
2022/02/27 05:08:04;;;;;;;11.55;3.97;;;2.30;99.90;;;;;;5013592;28;20053;-32
2022/02/27 05:10:31;;;;;;;17.98;4.43;;;2.30;99.90;;;;;;5012757;28;20057;-32
2022/02/27 05:12:57;;;;;;;14.88;4.70;;;2.30;99.90;;;;;;5013071;28;20410;-36
2022/02/27 05:15:23;;;;;;;12.35;3.85;;;2.50;99.90;;;;;;5024414;28;20572;-36
2022/02/27 05:17:50;;;;;;;6.80;3.33;;;2.50;99.90;;;;;;5014608;28;20022;-32
2022/02/27 05:20:16;;;;;;;12.60;4.07;;;2.50;99.90;;;;;;5032044;28;20060;-35
2022/02/27 05:22:46;;;;;;;11.25;4.10;;;2.50;99.90;;;;;;5016617;28;20033;-31
2022/02/27 05:25:12;;;;;;;15.10;3.70;;;2.60;99.90;;;;;;5018012;28;20089;-31
2022/02/27 05:27:38;;;;;;;14.00;4.10;;;2.80;99.90;;;;;;5032326;28;20082;-35
2022/02/27 05:30:05;;;;;;;11.45;3.38;;;2.80;99.90;;;;;;5032289;28;20457;-30
2022/02/27 05:32:31;;;;;;;7.57;3.40;;;2.80;99.90;;;;;;5020672;28;20414;-40
2022/02/27 05:34:57;;;;;;;13.60;3.22;;;2.90;99.90;;;;;;5030292;28;20022;-30
2022/02/27 05:37:22;;;;;;;15.40;3.90;;;2.80;99.90;;;;;;5033151;28;20113;-31
2022/02/27 05:39:48;;;;;;;18.38;3.85;;;2.80;99.90;;;;;;5013017;28;20101;-35
2022/02/27 05:42:14;;;;;;;10.05;3.65;;;2.80;99.90;;;;;;5013388;28;20505;-30
2022/02/27 05:44:39;;;;;;;18.08;4.82;;;2.80;99.90;;;;;;5030361;28;20029;-36
2022/02/27 05:47:24;;;;;;;10.73;3.42;;;2.80;99.90;;;;;;5025522;28;20033;-35
2022/02/27 05:49:49;;;;;;;10.85;3.90;;;2.90;99.90;;;;;;5030134;28;20030;-34
2022/02/27 05:52:15;;;;;;;9.15;3.65;;;2.90;99.90;;;;;;5031519;28;20104;-35
2022/02/27 05:54:41;;;;;;;13.23;3.97;;;2.80;99.90;;;;;;5024128;28;20025;-36
2022/02/27 05:57:06;;;;;;;13.10;4.00;;;2.80;99.90;;;;;;5027299;28;20026;-30
2022/02/27 05:59:32;;;;;;;15.90;4.43;;;2.80;99.90;;;;;;5038894;28;20825;-32
2022/02/27 06:01:58;;;;;;;11.77;3.97;;;2.80;99.90;;;;;;5032043;28;20034;-34
2022/02/27 06:04:23;;;;;;;11.93;3.90;;;2.80;99.90;;;;;;5019352;28;20068;-32
2022/02/27 06:06:49;;;;;;;18.30;3.90;;;2.80;99.90;;;;;;5039040;28;20076;-32
2022/02/27 06:09:15;;;;;;;10.93;3.40;;;2.70;99.90;;;;;;5035531;28;20505;-36
2022/02/27 06:11:40;;;;;;;13.85;4.22;;;2.70;99.90;;;;;;5027144;28;20048;-30
2022/02/27 06:14:07;;;;;;;12.32;3.85;;;2.70;99.90;;;;;;5036389;28;20104;-30
2022/02/27 06:16:33;;;;;;;13.40;4.20;;;2.70;99.90;;;;;;5029232;28;20367;-34
2022/02/27 06:18:59;;;;;;;8.55;3.63;;;2.70;99.90;;;;;;5016412;28;20022;-45
2022/02/27 06:21:24;;;;;;;9.75;3.47;;;2.70;99.90;;;;;;5022099;28;20033;-34
2022/02/27 06:23:50;;;;;;;8.98;2.90;;;2.60;99.90;;;;;;5025867;28;20022;-38
2022/02/27 06:26:16;;;;;;;14.65;4.70;;;2.70;99.90;;;;;;5025795;28;20026;-32
2022/02/27 06:28:42;;;;;;;13.07;4.22;;;2.70;99.90;;;;;;5035219;28;20040;-31
2022/02/27 06:31:08;;;;;;;15.57;4.03;;;2.80;99.90;;;;;;5032460;28;20026;-40
2022/02/27 06:33:34;;;;;;;7.80;3.40;;;2.80;99.90;;;;;;5032669;28;20466;-34
2022/02/27 06:35:59;;;;;;;11.73;3.95;;;2.80;99.90;;;;;;5021918;28;20040;-35
2022/02/27 06:38:25;;;;;;;10.15;3.50;;;2.80;99.90;;;;;;5034065;28;20033;-32
2022/02/27 06:40:51;;;;;;;11.48;4.00;;;2.80;99.90;;;;;;5033949;28;20025;-37
2022/02/27 06:43:16;;;;;;;10.43;3.60;;;2.70;99.90;;;;;;5022951;28;20025;-30
2022/02/27 06:45:42;;;;;;;12.15;3.33;;;2.70;99.90;;;;;;5035116;28;20535;-37
2022/02/27 06:48:08;;;;;;;13.15;2.95;;;2.70;99.90;;;;;;5032673;28;20093;-30
2022/02/27 06:50:33;;;;;;;15.60;3.10;;;2.80;99.90;;;;;;5030800;28;20021;-32
2022/02/27 06:52:59;;;;;;;12.88;2.72;;;2.80;99.90;;;;;;5037905;28;20017;-33
2022/02/27 06:55:25;;;;;;;14.52;3.58;;;2.80;99.90;;;;;;5013529;28;20057;-29
2022/02/27 06:57:51;;;;;;;9.52;3.25;;;2.90;99.90;;;;;;5039594;28;20104;-34
2022/02/27 07:00:18;;;;;;;15.13;3.53;;;2.90;99.90;;;;;;5034628;28;20025;-30
2022/02/27 07:02:44;;;;;;;9.30;3.42;;;2.90;99.90;;;;;;5034011;28;20029;-34
2022/02/27 07:05:10;;;;;;;10.35;3.10;;;3.00;99.90;;;;;;5033681;28;20025;-35
2022/02/27 07:07:36;;;;;;;6.20;2.97;;;3.00;99.90;;;;;;5034473;28;20448;-34
2022/02/27 07:10:03;;;;;;;12.30;3.78;;;3.10;99.90;;;;;;5023556;28;20070;-33
2022/02/27 07:12:34;;;;;;;8.40;2.50;;;3.10;99.90;;;;;;5026202;28;20116;-32
2022/02/27 07:15:01;;;;;;;12.52;3.70;;;3.10;99.90;;;;;;5038358;28;20060;-33
2022/02/27 07:17:27;;;;;;;5.50;2.95;;;3.20;99.90;;;;;;5032331;28;20117;-46
2022/02/27 07:19:53;;;;;;;6.40;2.80;;;3.20;99.90;;;;;;5034218;28;20108;-31
2022/02/27 07:22:19;;;;;;;5.97;2.60;;;3.30;99.90;;;;;;5022532;28;20034;-34
2022/02/27 07:24:45;;;;;;;5.53;2.42;;;3.40;99.90;;;;;;5033864;28;20025;-31
2022/02/27 07:27:11;;;;;;;8.43;4.13;;;3.40;99.90;;;;;;5031335;28;20444;-31
2022/02/27 07:29:36;;;;;;;5.43;2.30;;;3.40;99.90;;;;;;5034456;28;20477;-35
2022/02/27 07:32:03;;;;;;;12.35;3.17;;;3.50;99.90;;;;;;5031139;28;20448;-33
2022/02/27 07:34:28;;;;;;;9.20;2.90;;;3.50;99.90;;;;;;5009788;28;20502;-32
2022/02/27 07:36:55;;;;;;;5.30;2.38;;;3.60;99.90;;;;;;5015798;28;20108;-30
2022/02/27 07:39:25;;;;;;;9.45;2.83;;;3.60;99.90;;;;;;5024489;28;20512;-31
2022/02/27 07:41:51;;;;;;;8.13;3.22;;;3.80;99.90;;;;;;5024980;28;20022;-30
2022/02/27 07:44:17;;;;;;;9.45;2.70;;;3.90;99.90;;;;;;5048954;28;20108;-34
2022/02/27 07:46:43;;;;;;;8.90;2.92;;;4.00;99.90;;;;;;5036255;28;20123;-32
2022/02/27 07:49:08;;;;;;;11.13;2.25;;;4.00;99.90;;;;;;5032077;28;20031;-31
2022/02/27 07:51:34;;;;;;;7.25;2.33;;;4.10;99.90;;;;;;5032264;28;20401;-38
2022/02/27 07:54:01;;;;;;;13.38;2.78;;;4.20;99.90;;;;;;5033632;28;20030;-33
2022/02/27 07:56:26;;;;;;;21.13;3.03;;;4.30;99.90;;;;;;5032693;28;20033;-35
2022/02/27 07:58:52;;;;;;;7.43;2.70;;;4.40;99.90;;;;;;5033331;28;20120;-32
2022/02/27 08:01:18;;;;;;;5.10;1.90;;;4.40;99.90;;;;;;5032153;28;20056;-36
2022/02/27 08:03:44;;;;;;;7.15;2.08;;;4.50;99.90;;;;;;5024693;28;20081;-44
2022/02/27 08:06:10;;;;;;;10.43;1.88;;;4.60;99.90;;;;;;5014218;28;20026;-35
2022/02/27 08:08:35;;;;;;;12.23;2.17;;;4.70;99.90;;;;;;5014046;28;20060;-37
2022/02/27 08:11:01;;;;;;;7.88;2.03;;;4.70;99.90;;;;;;5036528;28;20462;-37
2022/02/27 08:13:27;;;;;;;9.20;2.53;;;4.80;99.90;;;;;;5032780;28;20033;-32
2022/02/27 08:15:57;;;;;;;6.90;2.28;;;4.90;99.90;;;;;;5031236;28;20108;-35
2022/02/27 08:18:24;;;;;;;7.50;2.53;;;5.00;99.90;;;;;;5036952;28;20074;-35
2022/02/27 08:20:49;;;;;;;8.43;2.15;;;5.00;99.90;;;;;;5033282;28;20047;-33
2022/02/27 08:23:18;;;;;;;8.35;2.30;;;5.10;99.90;;;;;;5036832;28;20398;-38
2022/02/27 08:25:44;;;;;;;5.18;1.88;;;5.20;99.90;;;;;;5041234;28;20025;-33
2022/02/27 08:28:10;;;;;;;6.25;2.13;;;5.30;99.90;;;;;;5018485;28;20128;-39
2022/02/27 08:30:36;;;;;;;9.60;2.83;;;5.30;99.90;;;;;;5034596;28;20045;-32
2022/02/27 08:33:02;;;;;;;8.13;2.38;;;5.40;99.90;;;;;;5036548;28;20103;-34
2022/02/27 08:35:28;;;;;;;9.80;2.75;;;5.40;99.90;;;;;;5035615;28;20100;-39
2022/02/27 08:37:53;;;;;;;9.23;2.85;;;5.40;99.90;;;;;;5035003;28;20517;-31
2022/02/27 08:40:19;;;;;;;11.88;2.42;;;5.50;99.90;;;;;;5035513;28;20233;-34
2022/02/27 08:42:45;;;;;;;12.57;2.28;;;5.60;99.90;;;;;;5040398;28;20033;-35
2022/02/27 08:45:11;;;;;;;6.38;2.20;;;5.60;99.90;;;;;;5042398;28;20056;-32
2022/02/27 08:47:36;;;;;;;8.00;2.70;;;5.70;99.90;;;;;;5034097;28;20028;-35
2022/02/27 08:50:03;;;;;;;13.88;2.47;;;5.80;99.90;;;;;;5014211;28;20493;-46
2022/02/27 08:52:29;;;;;;;7.57;2.70;;;5.80;99.90;;;;;;5032473;28;20021;-31
2022/02/27 08:54:55;;;;;;;8.55;3.03;;;5.80;99.90;;;;;;5035794;28;20058;-38
2022/02/27 08:57:20;;;;;;;7.15;1.98;;;5.90;99.90;;;;;;5034249;28;20022;-35
2022/02/27 08:59:46;;;;;;;4.13;2.33;;;6.00;99.90;;;;;;5034168;28;20046;-36
2022/02/27 09:02:11;;;;;;;5.70;2.90;;;6.00;99.90;;;;;;5034501;28;20021;-31
2022/02/27 09:04:37;;;;;;;9.70;2.72;;;6.10;99.90;;;;;;5037569;28;20412;-32
2022/02/27 09:07:03;;;;;;;5.75;2.30;;;6.20;99.90;;;;;;5032762;28;20055;-34
2022/02/27 09:09:29;;;;;;;6.85;2.00;;;6.30;99.90;;;;;;5034484;28;20431;-38
2022/02/27 09:11:57;;;;;;;5.72;2.17;;;6.30;99.90;;;;;;5035995;28;20036;-33
2022/02/27 09:14:22;;;;;;;;;;;6.30;99.90;;;;;;5037972;28;20024;-36
2022/02/27 09:16:48;;;;;;;5.18;1.85;;;6.30;99.90;;;;;;5036484;28;20277;-37
2022/02/27 09:19:13;;;;;;;7.00;2.08;;;6.40;99.90;;;;;;5033286;28;20060;-44
2022/02/27 09:21:39;;;;;;;7.78;2.78;;;6.50;99.90;;;;;;5034223;28;20491;-39
2022/02/27 09:24:05;;;;;;;22.88;2.78;;;6.50;99.90;;;;;;5037559;28;21807;-35
2022/02/27 09:26:30;;;;;;;9.18;2.60;;;6.50;99.90;;;;;;5035018;28;20071;-37
2022/02/27 09:28:56;;;;;;;12.85;2.65;;;6.60;99.90;;;;;;5033968;28;20063;-35
2022/02/27 09:31:22;;;;;;;4.30;2.38;;;6.70;99.90;;;;;;5033128;28;20060;-35
2022/02/27 09:33:47;;;;;;;11.13;2.90;;;6.90;99.90;;;;;;5037143;28;20027;-48
2022/02/27 09:36:13;;;;;;;8.60;2.63;;;6.80;99.90;;;;;;5031339;28;20080;-38
2022/02/27 09:38:39;;;;;;;5.82;2.67;;;6.90;99.90;;;;;;5025990;28;20029;-33
2022/02/27 09:41:06;;;;;;;5.97;3.60;;;6.80;99.90;;;;;;5028669;28;20501;-36
2022/02/27 09:43:32;;;;;;;5.97;2.42;;;6.90;99.90;;;;;;5041234;28;20034;-40
2022/02/27 09:45:59;;;;;;;5.55;2.40;;;7.00;99.90;;;;;;5035075;28;20029;-34
2022/02/27 09:48:26;;;;;;;5.93;2.17;;;7.00;99.90;;;;;;5034988;28;20044;-32
2022/02/27 09:50:52;;;;;;;9.88;3.17;;;7.00;99.90;;;;;;5039619;28;20032;-30
2022/02/27 09:53:18;;;;;;;8.68;2.20;;;6.90;99.90;;;;;;5035025;28;20017;-35
2022/02/27 09:55:44;;;;;;;15.85;2.72;;;7.00;99.90;;;;;;5035427;28;20031;-35
2022/02/27 09:58:10;;;;;;;5.90;2.30;;;7.00;99.90;;;;;;5038677;28;20037;-37
2022/02/27 10:00:35;;;;;;;6.00;2.78;;;7.20;99.90;;;;;;5036337;28;20037;-37
2022/02/27 10:03:11;;;;;;;4.63;2.63;;;7.30;99.90;;;;;;5039136;28;20013;-30
2022/02/27 10:06:00;;;;;;;9.18;2.58;;;7.40;99.90;;;;;;5038734;28;20037;-33
2022/02/27 10:08:39;;;;;;;8.27;2.40;;;7.40;99.90;;;;;;5025178;28;20029;-32
2022/02/27 10:11:05;;;;;;;6.47;2.58;;;7.40;99.90;;;;;;5039308;28;20028;-34
2022/02/27 10:13:36;;;;;;;4.75;1.92;;;7.40;99.90;;;;;;5040150;28;20024;-31
2022/02/27 10:16:08;;;;;;;8.07;2.33;;;7.40;99.90;;;;;;5036938;28;20414;-33
2022/02/27 10:18:39;;;;;;;4.05;1.60;;;7.60;99.90;;;;;;5038171;28;20061;-39
2022/02/27 10:21:16;;;;;;;8.02;2.45;;;7.70;99.90;;;;;;5036082;28;20021;-33
2022/02/27 10:23:42;;;;;;;9.13;2.60;;;7.80;99.90;;;;;;5038581;28;20021;-37
2022/02/27 10:26:20;;;;;;;4.38;1.90;;;7.90;99.90;;;;;;5040945;28;20075;-35
2022/02/27 10:29:05;;;;;;;3.63;1.70;;;8.10;99.90;;;;;;5038051;28;20040;-37
2022/02/27 10:31:31;;;;;;;2.65;1.75;;;8.10;99.90;;;;;;5037991;28;20082;-32
2022/02/27 10:33:58;;;;;;;7.95;3.17;;;8.10;99.90;;;;;;5032158;28;20021;-36
2022/02/27 10:36:24;;;;;;;3.10;2.00;;;8.20;99.90;;;;;;5036082;28;20037;-31
2022/02/27 10:38:52;;;;;;;10.35;2.10;;;8.20;99.90;;;;;;5021186;28;20607;-33
2022/02/27 10:41:21;;;;;;;3.42;1.88;;;8.20;99.90;;;;;;5038134;28;20032;-34
2022/02/27 10:43:48;;;;;;;6.13;2.55;;;8.30;99.90;;;;;;5039140;28;20674;-29
2022/02/27 10:46:17;;;;;;;7.25;2.47;;;8.20;99.90;;;;;;5040652;28;20124;-30
2022/02/27 10:48:43;;;;;;;6.82;2.15;;;8.00;99.90;;;;;;5039049;28;20032;-34
2022/02/27 10:51:11;;;;;;;9.02;2.20;;;8.10;99.90;;;;;;5029767;28;20490;-37
2022/02/27 10:53:39;;;;;;;;;;;7.90;99.90;;;;;;5025690;28;20026;-34
2022/02/27 10:56:09;;;;;;;6.88;2.08;;;7.90;99.90;;;;;;5033197;28;19958;-33
2022/02/27 10:58:46;;;;;;;3.78;1.80;;;7.90;99.90;;;;;;5030060;28;20045;-44
2022/02/27 11:01:22;;;;;;;5.03;1.75;;;8.00;99.90;;;;;;5023127;28;20104;-37
2022/02/27 11:03:49;;;;;;;6.00;1.65;;;8.10;99.90;;;;;;5030677;28;20537;-30
2022/02/27 11:06:16;;;;;;;3.45;1.90;;;8.10;99.90;;;;;;5036237;28;20033;-37
2022/02/27 11:08:42;;;;;;;28.70;2.88;;;8.20;99.90;;;;;;5037569;28;20496;-38
2022/02/27 11:11:08;;;;;;;7.18;2.40;;;8.30;99.90;;;;;;5034741;28;20096;-38
2022/02/27 11:13:34;;;;;;;5.22;2.42;;;8.40;99.90;;;;;;5036270;28;20028;-38
2022/02/27 11:16:04;;;;;;;11.48;2.00;;;8.40;99.90;;;;;;5021155;28;20056;-33
2022/02/27 11:18:30;;;;;;;5.50;2.40;;;8.50;99.90;;;;;;5038779;28;20033;-34
2022/02/27 11:20:57;;;;;;;6.03;2.22;;;8.70;99.90;;;;;;5037918;28;20032;-31
2022/02/27 11:23:23;;;;;;;6.70;2.33;;;8.90;99.90;;;;;;5038205;28;20065;-34
2022/02/27 11:25:50;;;;;;;5.78;1.92;;;9.00;99.90;;;;;;5040329;28;20071;-33
2022/02/27 11:28:19;;;;;;;5.72;1.95;;;9.00;99.90;;;;;;5034872;28;20108;-38
2022/02/27 11:30:47;;;;;;;5.25;2.38;;;9.10;99.90;;;;;;5034061;28;20021;-38
2022/02/27 11:33:14;;;;;;;4.40;2.53;;;9.00;99.90;;;;;;5039729;28;20025;-32
2022/02/27 11:35:41;;;;;;;3.83;2.00;;;9.10;99.90;;;;;;5035380;28;20033;-36
2022/02/27 11:38:08;;;;;;;3.90;2.08;;;9.10;99.90;;;;;;5031555;28;20026;-35
2022/02/27 11:40:42;;;;;;;8.75;2.33;;;9.10;99.90;;;;;;5035310;28;20366;-33
2022/02/27 11:43:08;;;;;;;5.18;2.33;;;9.10;99.90;;;;;;5035041;28;20024;-30
2022/02/27 11:45:34;;;;;;;4.13;2.00;;;9.10;99.90;;;;;;5034880;28;20473;-35
2022/02/27 11:47:59;;;;;;;5.65;2.55;;;9.20;99.90;;;;;;5037843;28;20034;-32
2022/02/27 11:50:28;;;;;;;12.50;2.45;;;9.20;99.90;;;;;;5035890;28;20056;-33
2022/02/27 11:52:54;;;;;;;4.90;2.50;;;9.30;99.90;;;;;;5034201;28;20029;-37
2022/02/27 11:55:42;;;;;;;9.30;3.08;;;9.30;99.90;;;;;;5038622;28;20033;-43
2022/02/27 11:58:37;;;;;;;7.50;4.13;;;9.40;99.90;;;;;;5032088;28;20179;-36
2022/02/27 12:01:04;;;;;;;5.88;2.85;;;9.50;99.90;;;;;;5033191;28;20111;-35
2022/02/27 12:03:30;;;;;;;4.63;2.35;;;9.60;99.90;;;;;;5034981;28;21438;-42
2022/02/27 12:06:07;;;;;;;7.68;2.25;;;9.60;99.90;;;;;;5034828;28;20021;-38
2022/02/27 12:08:53;;;;;;;4.33;2.47;;;9.50;99.90;;;;;;5028622;28;20025;-37
2022/02/27 12:11:29;;;;;;;5.57;2.00;;;9.50;99.90;;;;;;5045450;28;20028;-33
2022/02/27 12:14:15;;;;;;;3.67;3.00;;;9.60;99.90;;;;;;5023068;28;20033;-34
2022/02/27 12:16:45;;;;;;;6.65;2.58;;;9.50;99.90;;;;;;5025171;28;20049;-36
2022/02/27 12:19:27;;;;;;;5.38;2.50;;;9.50;99.90;;;;;;5034534;28;20402;-42
2022/02/27 12:21:56;;;;;;;2.58;2.35;;;9.60;99.90;;;;;;5030347;28;20032;-34
2022/02/27 12:24:21;;;;;;;5.47;2.58;;;9.70;99.90;;;;;;5031783;28;20370;-30
2022/02/27 12:26:55;;;;;;;5.05;3.33;;;9.80;99.90;;;;;;5030714;28;20091;-34
2022/02/27 12:29:23;;;;;;;8.02;2.75;;;9.80;99.90;;;;;;5033490;28;20037;-34
2022/02/27 12:31:49;;;;;;;2.25;2.00;;;9.90;99.90;;;;;;5027377;28;20033;-34
2022/02/27 12:34:18;;;;;;;2.72;2.25;;;9.90;99.90;;;;;;5034883;28;20033;-33
2022/02/27 12:36:48;;;;;;;2.33;2.00;;;10.00;99.90;;;;;;5035401;28;20501;-33
2022/02/27 12:39:15;;;;;;;7.32;2.45;;;9.90;99.30;;;;;;5044590;28;20108;-35
2022/02/27 12:41:51;;;;;;;7.03;2.67;;;9.90;99.80;;;;;;5034022;28;20022;-48
2022/02/27 12:44:35;;;;;;;9.68;2.35;;;9.70;99.00;;;;;;5033144;28;20034;-48
2022/02/27 12:47:03;;;;;;;5.80;2.38;;;9.70;99.40;;;;;;5033672;28;20336;-31
2022/02/27 12:52:22;;;;;;;5.13;2.70;;;10.00;99.70;;;;;;5035665;28;20083;-35
2022/02/27 12:54:51;;;;;;;7.20;2.67;;;10.10;99.30;;;;;;5035387;28;20474;-30
2022/02/27 12:57:17;;;;;;;5.68;2.00;;;10.10;99.50;;;;;;5018022;28;20040;-33